createdAt,value
2019-05-14T00:00:14.786Z,2.43
2019-05-14T00:02:45.295Z,2.83
2019-05-14T00:05:16.161Z,3.30
2019-05-14T00:07:47.192Z,2.70
2019-05-14T00:10:18.572Z,2.60
2019-05-14T00:12:51.106Z,2.60
2019-05-14T00:15:21.721Z,2.97
2019-05-14T00:17:52.427Z,2.97
2019-05-14T00:20:24.809Z,2.70
2019-05-14T00:22:55.578Z,2.97
2019-05-14T00:25:26.274Z,2.80
2019-05-14T00:27:56.752Z,3.00
2019-05-14T00:30:27.207Z,3.10
2019-05-14T00:32:57.717Z,3.90
2019-05-14T00:35:28.168Z,3.40
2019-05-14T00:37:58.770Z,2.60
2019-05-14T00:40:31.444Z,2.40
2019-05-14T00:43:02.674Z,2.43
2019-05-14T00:45:33.331Z,2.40
2019-05-14T00:48:04.066Z,2.77
2019-05-14T00:50:34.668Z,2.50
2019-05-14T00:53:05.097Z,3.10
2019-05-14T00:55:35.637Z,2.90
2019-05-14T00:58:06.133Z,2.83
2019-05-14T01:00:36.822Z,2.93
2019-05-14T01:03:07.287Z,2.77
2019-05-14T01:05:37.789Z,2.97
2019-05-14T01:08:08.250Z,3.40
2019-05-14T01:10:38.766Z,3.57
2019-05-14T01:13:11.153Z,3.33
2019-05-14T01:15:41.639Z,3.80
2019-05-14T01:18:12.284Z,3.03
2019-05-14T01:20:42.842Z,3.50
2019-05-14T01:23:13.300Z,2.60
2019-05-14T01:25:44.198Z,2.60
2019-05-14T01:28:14.666Z,3.20
2019-05-14T01:30:45.342Z,3.20
2019-05-14T01:33:15.790Z,2.93
2019-05-14T01:35:46.280Z,2.70
2019-05-14T01:38:16.752Z,2.60
2019-05-14T01:40:52.466Z,2.70
2019-05-14T01:43:22.574Z,3.07
2019-05-14T01:45:53.146Z,2.53
2019-05-14T01:48:23.650Z,2.80
2019-05-14T01:50:54.228Z,2.47
2019-05-14T01:53:24.716Z,2.47
2019-05-14T01:55:55.237Z,2.63
2019-05-14T01:58:25.724Z,2.80
2019-05-14T02:00:56.526Z,2.60
2019-05-14T02:03:26.968Z,2.97
2019-05-14T02:05:57.520Z,2.50
2019-05-14T02:08:27.984Z,3.03
2019-05-14T02:10:58.500Z,2.53
2019-05-14T02:13:28.942Z,3.10
2019-05-14T02:16:01.399Z,2.50
2019-05-14T02:18:31.860Z,2.43
2019-05-14T02:21:02.356Z,2.47
2019-05-14T02:23:32.895Z,2.70
2019-05-14T02:26:03.574Z,2.50
2019-05-14T02:28:34.133Z,2.70
2019-05-14T02:31:04.724Z,2.73
2019-05-14T02:33:35.196Z,2.70
2019-05-14T02:36:05.694Z,3.10
2019-05-14T02:38:38.723Z,2.70
2019-05-14T02:41:09.904Z,2.87
2019-05-14T02:43:41.180Z,2.63
2019-05-14T02:46:17.121Z,2.60
2019-05-14T02:48:44.277Z,2.40
2019-05-14T02:51:14.882Z,2.63
2019-05-14T02:53:45.335Z,2.40
2019-05-14T02:56:16.352Z,2.50
2019-05-14T02:58:49.855Z,2.63
2019-05-14T03:01:19.943Z,2.60
2019-05-14T03:03:50.957Z,2.60
2019-05-14T03:06:21.670Z,2.67
2019-05-14T03:08:54.506Z,2.53
2019-05-14T03:11:29.412Z,2.83
2019-05-14T03:13:59.895Z,3.00
2019-05-14T03:16:35.686Z,2.37
2019-05-14T03:19:03.266Z,2.50
2019-05-14T03:21:33.778Z,2.40
2019-05-14T03:24:04.360Z,2.37
2019-05-14T03:26:35.184Z,2.20
2019-05-14T03:29:09.600Z,2.73
2019-05-14T03:31:42.644Z,2.93
2019-05-14T03:34:13.325Z,2.40
2019-05-14T03:36:45.253Z,2.83
2019-05-14T03:39:18.954Z,2.87
2019-05-14T03:41:49.935Z,3.03
2019-05-14T03:44:20.341Z,3.13
2019-05-14T03:46:55.427Z,3.13
2019-05-14T03:49:24.288Z,3.20
2019-05-14T03:51:55.974Z,3.30
2019-05-14T03:54:29.559Z,2.70
2019-05-14T03:57:00.391Z,3.03
2019-05-14T03:59:30.982Z,2.90
2019-05-14T04:02:01.973Z,3.03
2019-05-14T04:04:32.656Z,2.97
2019-05-14T04:07:09.381Z,2.70
2019-05-14T04:09:40.315Z,2.77
2019-05-14T04:12:12.965Z,3.10
2019-05-14T04:14:50.002Z,3.43
2019-05-14T04:17:33.740Z,3.20
2019-05-14T04:20:01.162Z,3.47
2019-05-14T04:22:34.274Z,3.73
2019-05-14T04:25:11.319Z,3.13
2019-05-14T04:27:43.956Z,3.93
2019-05-14T04:30:22.729Z,3.73
2019-05-14T04:32:50.739Z,3.30
2019-05-14T04:35:21.593Z,4.10
2019-05-14T04:37:52.369Z,4.10
2019-05-14T04:40:22.836Z,4.50
2019-05-14T04:42:53.539Z,4.50
2019-05-14T04:45:24.031Z,4.53
2019-05-14T04:47:59.966Z,5.33
2019-05-14T04:50:29.665Z,5.43
2019-05-14T04:53:00.408Z,6.57
2019-05-14T04:55:31.005Z,7.17
2019-05-14T04:58:01.658Z,7.53
2019-05-14T05:00:32.235Z,8.20
2019-05-14T05:03:02.789Z,8.93
2019-05-14T05:05:33.563Z,8.63
2019-05-14T05:08:04.212Z,9.77
2019-05-14T05:10:34.704Z,9.93
2019-05-14T05:13:05.622Z,10.67
2019-05-14T05:15:41.411Z,11.23
2019-05-14T05:18:18.642Z,9.87
2019-05-14T05:20:50.607Z,9.13
2019-05-14T05:23:21.194Z,7.10
2019-05-14T05:25:51.723Z,6.37
2019-05-14T05:28:22.351Z,4.80
2019-05-14T05:30:52.816Z,5.10
2019-05-14T05:33:32.304Z,4.73
2019-05-14T05:36:02.871Z,4.40
2019-05-14T05:38:33.622Z,3.60
2019-05-14T05:41:04.087Z,3.60
2019-05-14T05:43:35.092Z,3.20
2019-05-14T05:46:08.638Z,2.73
2019-05-14T05:48:39.324Z,3.00
2019-05-14T05:51:09.883Z,2.87
2019-05-14T05:53:40.364Z,2.70
2019-05-14T05:56:11.353Z,2.90
2019-05-14T05:58:41.936Z,2.70
2019-05-14T06:01:12.613Z,2.73
2019-05-14T06:03:43.158Z,2.50
2019-05-14T06:06:15.016Z,3.00
2019-05-14T06:08:45.491Z,2.47
2019-05-14T06:11:15.998Z,2.50
2019-05-14T06:13:48.496Z,3.30
2019-05-14T06:16:18.937Z,2.43
2019-05-14T06:18:49.770Z,2.27
2019-05-14T06:21:21.041Z,2.67
2019-05-14T06:23:51.773Z,2.10
2019-05-14T06:26:22.736Z,2.30
2019-05-14T06:28:59.721Z,2.53
2019-05-14T06:31:30.643Z,2.40
2019-05-14T06:34:02.625Z,2.20
2019-05-14T06:36:40.694Z,2.00
2019-05-14T06:39:18.356Z,1.80
2019-05-14T06:41:58.522Z,2.00
2019-05-14T06:44:29.851Z,1.80
2019-05-14T06:47:01.781Z,1.90
2019-05-14T06:49:32.336Z,2.03
2019-05-14T06:52:08.989Z,1.80
2019-05-14T06:54:41.803Z,1.63
2019-05-14T06:57:28.589Z,2.00
2019-05-14T07:00:04.285Z,1.83
2019-05-14T07:02:34.809Z,1.80
2019-05-14T07:05:13.862Z,2.27
2019-05-14T07:07:49.089Z,2.07
2019-05-14T07:10:19.636Z,1.87
2019-05-14T07:12:54.964Z,2.07
2019-05-14T07:15:30.508Z,1.70
2019-05-14T07:18:04.217Z,1.60
2019-05-14T07:20:39.148Z,1.97
2019-05-14T07:23:10.090Z,1.73
2019-05-14T07:25:53.554Z,1.77
2019-05-14T07:28:29.063Z,1.80
2019-05-14T07:31:02.350Z,1.50
2019-05-14T07:33:32.880Z,1.93
2019-05-14T07:36:03.683Z,1.50
2019-05-14T07:38:34.144Z,2.00
2019-05-14T07:41:04.806Z,1.60
2019-05-14T07:43:35.409Z,1.80
2019-05-14T07:46:08.297Z,1.90
2019-05-14T07:48:39.543Z,1.63
2019-05-14T07:51:10.426Z,2.67
2019-05-14T07:53:42.517Z,1.57
2019-05-14T07:56:13.355Z,1.60
2019-05-14T07:58:43.841Z,1.70
2019-05-14T08:01:14.410Z,1.80
2019-05-14T08:03:44.917Z,1.60
2019-05-14T08:06:15.410Z,1.80
2019-05-14T08:08:46.068Z,1.50
2019-05-14T08:11:18.921Z,1.70
2019-05-14T08:13:49.530Z,1.83
2019-05-14T08:16:20.679Z,2.17
2019-05-14T08:18:51.158Z,1.77
2019-05-14T08:21:21.720Z,1.70
2019-05-14T08:23:52.224Z,1.50
2019-05-14T08:26:23.087Z,1.70
2019-05-14T08:28:53.687Z,2.20
2019-05-14T08:31:24.176Z,2.17
2019-05-14T08:33:56.334Z,2.33
2019-05-14T08:36:28.651Z,2.17
2019-05-14T08:38:59.044Z,2.20
2019-05-14T08:41:29.486Z,1.90
2019-05-14T08:44:00.205Z,2.23
2019-05-14T08:46:32.756Z,2.00
2019-05-14T08:49:03.557Z,2.00
2019-05-14T08:51:34.110Z,2.07
2019-05-14T08:54:04.799Z,2.13
2019-05-14T08:56:35.282Z,2.00
2019-05-14T08:59:08.507Z,2.03
2019-05-14T09:01:38.716Z,2.43
2019-05-14T09:04:13.217Z,2.87
2019-05-14T09:06:45.401Z,2.67
2019-05-14T09:09:18.519Z,3.00
2019-05-14T09:11:50.447Z,3.27
2019-05-14T09:14:20.737Z,2.67
2019-05-14T09:16:51.430Z,3.33
2019-05-14T09:19:22.058Z,3.60
2019-05-14T09:21:52.625Z,3.67
2019-05-14T09:24:23.163Z,3.63
2019-05-14T09:26:53.839Z,3.73
2019-05-14T09:29:26.090Z,3.70
2019-05-14T09:31:58.957Z,2.60
2019-05-14T09:34:30.495Z,3.27
2019-05-14T09:37:01.123Z,2.97
2019-05-14T09:39:31.665Z,2.80
2019-05-14T09:42:02.397Z,2.80
2019-05-14T09:44:33.058Z,2.60
2019-05-14T09:47:03.637Z,2.40
2019-05-14T09:49:34.495Z,2.40
2019-05-14T09:52:05.019Z,2.00
2019-05-14T09:54:35.730Z,2.00
2019-05-14T09:57:08.352Z,1.90
2019-05-14T09:59:43.351Z,2.10
2019-05-14T10:02:16.511Z,2.20
2019-05-14T10:04:48.987Z,2.33
2019-05-14T10:07:19.737Z,1.70
2019-05-14T10:09:52.771Z,1.90
2019-05-14T10:12:23.543Z,1.70
2019-05-14T10:14:54.309Z,1.93
2019-05-14T10:17:26.035Z,2.00
2019-05-14T10:19:59.361Z,2.07
2019-05-14T10:22:31.161Z,2.20
2019-05-14T10:25:03.986Z,2.00
2019-05-14T10:27:37.095Z,1.73
2019-05-14T10:30:10.294Z,1.97
2019-05-14T10:32:41.825Z,2.00
2019-05-14T10:35:14.075Z,2.23
2019-05-14T10:37:44.731Z,1.90
2019-05-14T10:40:18.210Z,2.00
2019-05-14T10:42:49.512Z,1.90
2019-05-14T10:45:23.416Z,2.10
2019-05-14T10:47:55.654Z,2.17
2019-05-14T10:50:26.150Z,1.90
2019-05-14T10:52:59.467Z,1.90
2019-05-14T10:55:30.907Z,1.90
2019-05-14T10:58:01.907Z,1.73
2019-05-14T11:00:41.573Z,1.90
2019-05-14T11:03:09.502Z,1.60
2019-05-14T11:05:41.718Z,1.70
2019-05-14T11:08:12.386Z,1.77
2019-05-14T11:10:43.087Z,1.50
2019-05-14T11:13:13.587Z,1.40
2019-05-14T11:15:44.256Z,1.17
2019-05-14T11:18:14.811Z,1.30
2019-05-14T11:20:51.068Z,1.37
2019-05-14T11:23:18.994Z,1.50
2019-05-14T11:25:49.643Z,1.20
2019-05-14T11:28:20.317Z,1.30
2019-05-14T11:30:50.814Z,1.30
2019-05-14T11:33:21.266Z,1.70
2019-05-14T11:35:51.752Z,1.80
2019-05-14T11:38:31.869Z,1.80
2019-05-14T11:40:54.462Z,1.87
2019-05-14T11:43:25.110Z,1.90
2019-05-14T11:45:55.618Z,1.80
2019-05-14T11:48:26.274Z,1.80
2019-05-14T11:50:59.424Z,1.90
2019-05-14T11:53:28.990Z,1.80
2019-05-14T11:55:59.580Z,2.00
2019-05-14T11:58:30.530Z,1.80
2019-05-14T12:01:01.068Z,2.07
2019-05-14T12:03:31.574Z,1.80
2019-05-14T12:06:02.546Z,1.90
2019-05-14T12:08:34.259Z,2.13
2019-05-14T12:11:05.559Z,1.83
2019-05-14T12:13:39.178Z,1.90
2019-05-14T12:16:08.650Z,1.67
2019-05-14T12:18:41.705Z,1.67
2019-05-14T12:21:11.600Z,1.40
2019-05-14T12:23:42.344Z,1.20
2019-05-14T12:26:12.958Z,1.30
2019-05-14T12:28:44.134Z,1.50
2019-05-14T12:31:14.748Z,1.17
2019-05-14T12:33:45.259Z,1.70
2019-05-14T12:36:19.017Z,1.60
2019-05-14T12:38:48.166Z,1.40
2019-05-14T12:41:19.480Z,1.40
2019-05-14T12:43:50.400Z,1.33
2019-05-14T12:46:21.301Z,1.40
2019-05-14T12:48:52.053Z,1.20
2019-05-14T12:51:22.678Z,1.30
2019-05-14T12:53:53.302Z,1.23
2019-05-14T12:56:23.978Z,1.37
2019-05-14T12:58:54.620Z,1.60
2019-05-14T13:01:25.161Z,1.20
2019-05-14T13:03:55.654Z,1.40
2019-05-14T13:06:26.255Z,1.20
2019-05-14T13:08:58.608Z,1.60
2019-05-14T13:11:29.110Z,1.30
2019-05-14T13:13:59.637Z,1.37
2019-05-14T13:16:30.315Z,1.40
2019-05-14T13:19:01.191Z,1.40
2019-05-14T13:21:31.742Z,1.30
2019-05-14T13:24:02.541Z,1.10
2019-05-14T13:26:33.211Z,1.00
2019-05-14T13:29:07.383Z,2.07
2019-05-14T13:31:36.008Z,1.30
2019-05-14T13:34:08.890Z,1.40
2019-05-14T13:36:40.086Z,1.40
2019-05-14T13:39:11.180Z,1.30
2019-05-14T13:41:42.107Z,1.10
2019-05-14T13:44:21.683Z,1.37
2019-05-14T13:46:45.197Z,1.23
2019-05-14T13:49:15.731Z,1.30
2019-05-14T13:51:48.845Z,1.27
2019-05-14T13:54:19.325Z,1.07
2019-05-14T13:56:50.034Z,1.20
2019-05-14T13:59:21.743Z,1.10
2019-05-14T14:01:54.807Z,1.00
2019-05-14T14:04:24.839Z,1.07
2019-05-14T14:06:55.421Z,1.20
2019-05-14T14:09:28.332Z,1.00
2019-05-14T14:11:58.796Z,1.03
2019-05-14T14:14:29.392Z,1.00
2019-05-14T14:16:59.855Z,1.10
2019-05-14T14:19:30.527Z,1.07
2019-05-14T14:22:01.104Z,0.90
2019-05-14T14:24:31.946Z,0.90
2019-05-14T14:27:02.653Z,1.00
2019-05-14T14:29:33.370Z,1.00
2019-05-14T14:32:03.996Z,1.00
2019-05-14T14:34:35.417Z,0.80
2019-05-14T14:37:08.636Z,0.70
2019-05-14T14:39:39.029Z,0.90
2019-05-14T14:42:09.542Z,1.10
2019-05-14T14:44:40.076Z,0.93
2019-05-14T14:47:10.643Z,0.80
2019-05-14T14:49:44.416Z,1.20
2019-05-14T14:52:15.081Z,1.00
2019-05-14T14:54:45.707Z,1.10
2019-05-14T14:57:19.573Z,0.83
2019-05-14T14:59:48.833Z,1.57
2019-05-14T15:02:19.894Z,1.43
2019-05-14T15:04:50.815Z,1.40
2019-05-14T15:07:22.715Z,1.40
2019-05-14T15:09:53.341Z,1.00
2019-05-14T15:12:23.981Z,0.90
2019-05-14T15:14:54.551Z,1.10
2019-05-14T15:17:25.178Z,2.00
2019-05-14T15:19:55.697Z,1.80
2019-05-14T15:22:30.984Z,1.87
2019-05-14T15:25:00.479Z,1.90
2019-05-14T15:27:30.958Z,1.83
2019-05-14T15:30:01.632Z,1.80
2019-05-14T15:32:32.256Z,2.20
2019-05-14T15:35:03.670Z,2.60
2019-05-14T15:37:35.526Z,2.40
2019-05-14T15:40:06.585Z,2.10
2019-05-14T15:42:39.402Z,1.50
2019-05-14T15:45:09.631Z,1.70
2019-05-14T15:47:40.189Z,1.70
2019-05-14T15:50:10.984Z,1.50
2019-05-14T15:52:41.526Z,1.27
2019-05-14T15:55:12.682Z,1.37
2019-05-14T15:57:45.337Z,1.20
2019-05-14T16:00:19.590Z,1.20
2019-05-14T16:02:50.394Z,1.40
2019-05-14T16:05:21.330Z,1.80
2019-05-14T16:07:51.856Z,1.87
2019-05-14T16:10:31.419Z,1.70
2019-05-14T16:13:02.174Z,1.90
2019-05-14T16:15:33.094Z,1.53
2019-05-14T16:18:09.425Z,1.50
2019-05-14T16:20:38.990Z,1.73
2019-05-14T16:23:10.891Z,1.73
2019-05-14T16:25:42.777Z,1.60
2019-05-14T16:28:13.327Z,1.73
2019-05-14T16:30:44.288Z,1.80
2019-05-14T16:33:14.854Z,1.80
2019-05-14T16:35:45.460Z,2.30
2019-05-14T16:38:15.902Z,1.93
2019-05-14T16:40:48.735Z,2.30
2019-05-14T16:43:19.199Z,2.70
2019-05-14T16:45:49.833Z,3.47
2019-05-14T16:48:20.329Z,4.20
2019-05-14T16:50:50.791Z,3.27
2019-05-14T16:53:23.898Z,2.07
2019-05-14T16:55:54.510Z,2.90
2019-05-14T16:58:29.035Z,2.50
2019-05-14T17:00:58.928Z,2.30
2019-05-14T17:03:30.123Z,1.83
2019-05-14T17:06:00.854Z,1.60
2019-05-14T17:08:31.865Z,1.90
2019-05-14T17:11:02.446Z,1.60
2019-05-14T17:13:32.961Z,1.40
2019-05-14T17:16:03.488Z,1.90
2019-05-14T17:18:34.088Z,1.70
2019-05-14T17:21:04.636Z,1.80
2019-05-14T17:23:35.168Z,2.10
2019-05-14T17:26:08.823Z,1.80
2019-05-14T17:28:40.630Z,1.80
2019-05-14T17:31:12.505Z,1.70
2019-05-14T17:33:44.222Z,1.40
2019-05-14T17:36:18.775Z,1.77
2019-05-14T17:38:50.636Z,1.40
2019-05-14T17:41:23.038Z,1.73
2019-05-14T17:43:58.606Z,1.90
2019-05-14T17:46:30.676Z,1.73
2019-05-14T17:49:06.862Z,1.57
2019-05-14T17:51:39.114Z,1.83
2019-05-14T17:54:10.697Z,2.20
2019-05-14T17:56:43.802Z,1.90
2019-05-14T17:59:18.735Z,1.97
2019-05-14T18:01:47.924Z,2.07
2019-05-14T18:04:18.657Z,1.93
2019-05-14T18:06:49.611Z,2.00
2019-05-14T18:09:21.184Z,2.10
2019-05-14T18:11:53.228Z,1.93
2019-05-14T18:14:28.219Z,2.10
2019-05-14T18:16:59.216Z,2.10
2019-05-14T18:19:32.027Z,2.30
2019-05-14T18:22:20.215Z,1.90
2019-05-14T18:24:51.546Z,2.27
2019-05-14T18:27:23.940Z,2.40
2019-05-14T18:29:55.488Z,2.37
2019-05-14T18:32:28.814Z,2.50
2019-05-14T18:34:59.701Z,2.27
2019-05-14T18:37:31.322Z,2.20
2019-05-14T18:40:03.235Z,2.30
2019-05-14T18:42:35.005Z,2.03
2019-05-14T18:45:08.578Z,2.63
2019-05-14T18:47:54.103Z,2.63
2019-05-14T18:50:37.776Z,2.40
2019-05-14T18:53:18.920Z,2.73
2019-05-14T18:56:16.586Z,2.90
2019-05-14T18:58:58.262Z,2.80
2019-05-14T19:01:30.298Z,2.77
2019-05-14T19:04:28.509Z,2.40
2019-05-14T19:07:20.140Z,2.30
2019-05-14T19:09:53.829Z,2.33
2019-05-14T19:12:24.724Z,1.90
2019-05-14T19:14:55.406Z,1.83
2019-05-14T19:17:28.337Z,1.90
2019-05-14T19:20:03.185Z,1.63
2019-05-14T19:22:36.188Z,1.83
2019-05-14T19:25:13.713Z,1.80
2019-05-14T19:27:49.847Z,1.80
2019-05-14T19:30:28.472Z,1.70
2019-05-14T19:33:04.789Z,1.90
2019-05-14T19:35:40.949Z,1.80
2019-05-14T19:38:17.850Z,1.90
2019-05-14T19:40:54.132Z,1.80
2019-05-14T19:43:29.771Z,1.97
2019-05-14T19:46:08.795Z,1.93
2019-05-14T19:49:34.772Z,2.00
2019-05-14T19:52:30.995Z,1.90
2019-05-14T19:55:12.411Z,1.97
2019-05-14T19:57:44.800Z,1.77
2019-05-14T20:00:39.590Z,1.70
2019-05-14T20:06:02.348Z,1.90
2019-05-14T20:08:38.257Z,2.20
2019-05-14T20:11:32.086Z,2.37
2019-05-14T20:14:20.405Z,2.20
2019-05-14T20:17:09.230Z,2.03
2019-05-14T20:19:40.937Z,1.87
2019-05-14T20:22:11.903Z,1.90
2019-05-14T20:24:58.873Z,1.70
2019-05-14T20:27:29.407Z,1.87
2019-05-14T20:30:08.739Z,1.93
2019-05-14T20:32:44.446Z,2.53
2019-05-14T20:35:34.516Z,2.10
2019-05-14T20:38:01.753Z,2.17
2019-05-14T20:40:48.672Z,1.97
2019-05-14T20:43:30.652Z,2.07
2019-05-14T20:46:05.395Z,2.23
2019-05-14T20:48:38.834Z,2.20
2019-05-14T20:51:18.396Z,2.37
2019-05-14T20:53:49.889Z,2.17
2019-05-14T20:56:53.765Z,2.20
2019-05-14T20:59:28.260Z,2.47
2019-05-14T21:02:08.434Z,2.30
2019-05-14T21:05:05.447Z,2.00
2019-05-14T21:08:13.938Z,2.30
2019-05-14T21:10:46.460Z,2.30
2019-05-14T21:13:18.192Z,2.20
2019-05-14T21:16:10.886Z,2.40
2019-05-14T21:18:52.318Z,2.00
2019-05-14T21:21:24.191Z,2.30
2019-05-14T21:23:55.604Z,2.00
2019-05-14T21:26:29.381Z,2.37
2019-05-14T21:29:38.346Z,2.30
2019-05-14T21:32:10.942Z,2.30
2019-05-14T21:34:41.893Z,1.80
2019-05-14T21:37:14.806Z,1.97
2019-05-14T21:39:45.464Z,2.00
2019-05-14T21:42:16.060Z,2.27
2019-05-14T21:44:48.406Z,1.80
2019-05-14T21:47:18.979Z,2.00
2019-05-14T21:49:49.496Z,1.90
2019-05-14T21:52:20.150Z,2.00
2019-05-14T21:54:50.769Z,2.07
2019-05-14T21:57:23.766Z,2.03
2019-05-14T21:59:54.247Z,2.27
2019-05-14T22:02:29.876Z,2.10
2019-05-14T22:04:58.263Z,2.20
2019-05-14T22:07:29.379Z,2.50
2019-05-14T22:09:59.847Z,2.30
2019-05-14T22:12:31.672Z,2.33
2019-05-14T22:15:02.595Z,2.23
2019-05-14T22:17:33.227Z,2.50
2019-05-14T22:20:08.241Z,2.30
2019-05-14T22:22:39.231Z,2.40
2019-05-14T22:25:09.989Z,2.30
2019-05-14T22:27:40.481Z,2.57
2019-05-14T22:30:11.624Z,2.53
2019-05-14T22:32:42.320Z,2.50
2019-05-14T22:35:13.031Z,2.73
2019-05-14T22:37:44.984Z,2.70
2019-05-14T22:40:18.395Z,2.80
2019-05-14T22:42:48.955Z,2.63
2019-05-14T22:45:19.803Z,2.50
2019-05-14T22:47:50.366Z,2.80
2019-05-14T22:50:20.838Z,2.70
2019-05-14T22:52:51.317Z,3.03
2019-05-14T22:55:22.029Z,3.33
2019-05-14T22:57:52.497Z,3.00
2019-05-14T23:00:23.957Z,2.87
2019-05-14T23:02:54.518Z,2.60
2019-05-14T23:05:25.007Z,3.50
2019-05-14T23:07:58.047Z,2.47
2019-05-14T23:10:27.948Z,3.50
2019-05-14T23:12:58.630Z,3.23
2019-05-14T23:15:29.185Z,3.33
2019-05-14T23:17:59.656Z,3.40
2019-05-14T23:20:31.699Z,3.50
2019-05-14T23:23:02.233Z,3.23
2019-05-14T23:25:33.041Z,3.17
2019-05-14T23:28:03.630Z,2.97
2019-05-14T23:30:34.833Z,3.37
2019-05-14T23:33:05.522Z,2.93
2019-05-14T23:35:39.070Z,3.07
2019-05-14T23:38:09.352Z,3.60
2019-05-14T23:40:39.849Z,3.07
2019-05-14T23:43:10.333Z,3.07
2019-05-14T23:45:43.069Z,3.37
2019-05-14T23:48:13.654Z,3.60
2019-05-14T23:50:44.139Z,3.90
2019-05-14T23:53:14.649Z,3.47
2019-05-14T23:55:45.305Z,3.50
2019-05-14T23:58:20.195Z,3.23
